createdAt,value
2023-03-01T02:06:44.226Z,-1.14
2023-03-01T02:08:17.406Z,-1.14
2023-03-01T02:09:17.361Z,-1.01
2023-03-01T02:10:17.395Z,-0.96
2023-03-01T02:11:17.362Z,-0.80
2023-03-01T02:12:17.380Z,-0.70
2023-03-01T02:13:17.343Z,-0.57
2023-03-01T02:14:17.398Z,-0.68
2023-03-01T02:15:17.323Z,-0.59
2023-03-01T02:16:17.499Z,-0.68
2023-03-01T02:17:17.303Z,-0.57
2023-03-01T02:18:18.492Z,-0.44
2023-03-01T02:19:18.442Z,-0.46
2023-03-01T02:20:18.420Z,-0.44
2023-03-01T02:21:18.448Z,-0.36
2023-03-01T02:22:19.254Z,-0.23
2023-03-01T02:23:18.404Z,-0.10
2023-03-01T02:24:20.226Z,0.01
2023-03-01T02:25:19.414Z,0.12
2023-03-01T02:26:18.386Z,0.16
2023-03-01T02:27:18.372Z,0.11
2023-03-01T02:28:18.420Z,0.03
2023-03-01T02:29:18.436Z,0.21
2023-03-01T02:30:18.385Z,0.32
2023-03-01T02:31:18.384Z,0.32
2023-03-01T02:32:18.390Z,0.23
2023-03-01T02:33:18.346Z,0.22
2023-03-01T02:34:18.349Z,0.16
2023-03-01T02:35:18.383Z,0.01
2023-03-01T02:36:18.330Z,0.00
2023-03-01T02:37:18.350Z,-0.07
2023-03-01T02:38:18.391Z,-0.14
2023-03-01T02:39:18.328Z,-0.08
2023-03-01T02:40:18.421Z,0.19
2023-03-01T02:41:18.291Z,0.47
2023-03-01T02:42:18.294Z,0.62
2023-03-01T02:43:18.302Z,0.77
2023-03-01T02:44:18.337Z,0.83
2023-03-01T02:45:18.297Z,0.94
2023-03-01T02:46:18.384Z,0.99
2023-03-01T02:47:18.261Z,1.04
2023-03-01T02:48:18.264Z,1.04
2023-03-01T02:49:18.241Z,1.23
2023-03-01T02:50:18.282Z,1.38
2023-03-01T02:51:18.283Z,1.42
2023-03-01T02:52:18.226Z,1.38
2023-03-01T02:53:18.234Z,1.32
2023-03-01T02:54:18.194Z,1.44
2023-03-01T02:55:18.246Z,1.48
2023-03-01T02:56:18.218Z,1.48
2023-03-01T02:57:18.207Z,1.38
2023-03-01T02:58:18.207Z,1.32
2023-03-01T02:59:18.185Z,1.08
2023-03-01T03:00:18.183Z,1.16
2023-03-01T03:01:18.251Z,1.19
2023-03-01T03:02:18.186Z,1.19
2023-03-01T03:03:18.154Z,1.13
2023-03-01T03:04:18.172Z,1.05
2023-03-01T03:05:18.194Z,1.02
2023-03-01T03:06:18.120Z,0.92
2023-03-01T03:07:18.135Z,0.73
2023-03-01T03:08:18.153Z,0.49
2023-03-01T03:09:18.097Z,0.26
2023-03-01T03:10:18.138Z,0.19
2023-03-01T03:11:18.107Z,0.00
2023-03-01T03:12:18.120Z,0.15
2023-03-01T03:13:18.075Z,0.18
2023-03-01T03:14:18.102Z,0.18
2023-03-01T03:15:18.070Z,0.15
2023-03-01T03:16:18.162Z,0.01
2023-03-01T03:17:18.041Z,-0.10
2023-03-01T03:18:18.051Z,-0.10
2023-03-01T03:19:18.071Z,-0.15
2023-03-01T03:20:18.078Z,-0.18
2023-03-01T03:21:18.038Z,-0.08
2023-03-01T03:22:18.068Z,0.01
2023-03-01T03:23:18.047Z,0.04
2023-03-01T03:24:18.012Z,0.21
2023-03-01T03:25:18.030Z,0.40
2023-03-01T03:26:18.073Z,0.52
2023-03-01T03:27:18.014Z,0.78
2023-03-01T03:28:18.000Z,0.86
2023-03-01T03:29:17.977Z,0.88
2023-03-01T03:30:17.995Z,0.92
2023-03-01T03:31:17.981Z,0.83
2023-03-01T03:32:17.975Z,0.73
2023-03-01T03:33:17.951Z,0.78
2023-03-01T03:34:17.975Z,0.55
2023-03-01T03:35:17.961Z,0.62
2023-03-01T03:36:17.967Z,0.50
2023-03-01T03:37:17.929Z,0.37
2023-03-01T03:38:17.983Z,0.31
2023-03-01T03:39:20.578Z,0.26
2023-03-01T03:40:17.917Z,0.21
2023-03-01T03:41:17.918Z,0.25
2023-03-01T03:42:17.903Z,0.34
2023-03-01T03:43:17.918Z,0.50
2023-03-01T03:44:17.886Z,0.70
2023-03-01T03:45:17.885Z,0.73
2023-03-01T03:46:17.871Z,0.84
2023-03-01T03:47:18.068Z,0.94
2023-03-01T03:48:17.848Z,0.98
2023-03-01T03:49:17.851Z,0.91
2023-03-01T03:50:17.861Z,0.98
2023-03-01T03:51:17.836Z,1.06
2023-03-01T03:52:17.824Z,1.16
2023-03-01T03:53:17.853Z,1.04
2023-03-01T03:54:17.818Z,1.05
2023-03-01T03:55:17.842Z,1.12
2023-03-01T03:56:17.820Z,1.16
2023-03-01T03:57:17.967Z,0.95
2023-03-01T03:58:17.813Z,0.84
2023-03-01T03:59:17.767Z,0.66
2023-03-01T04:00:17.827Z,0.56
2023-03-01T04:01:17.810Z,0.50
2023-03-01T04:02:17.786Z,0.50
2023-03-01T04:03:17.761Z,0.52
2023-03-01T04:04:17.740Z,0.66
2023-03-01T04:05:17.748Z,0.86
2023-03-01T04:06:17.768Z,0.77
2023-03-01T04:07:17.749Z,0.87
2023-03-01T04:08:17.715Z,0.80
2023-03-01T04:09:17.704Z,0.69
2023-03-01T04:10:18.247Z,0.59
2023-03-01T04:11:17.707Z,0.29
2023-03-01T04:12:17.688Z,0.12
2023-03-01T04:13:17.717Z,-0.15
2023-03-01T04:14:17.666Z,-0.32
2023-03-01T04:15:17.699Z,-0.68
2023-03-01T04:16:17.734Z,-0.93
2023-03-01T04:17:17.689Z,-0.96
2023-03-01T04:18:17.638Z,-1.02
2023-03-01T04:19:17.641Z,-1.17
2023-03-01T04:20:17.679Z,-1.38
2023-03-01T04:21:17.641Z,-1.51
2023-03-01T04:22:17.631Z,-1.48
2023-03-01T04:23:18.611Z,-1.64
2023-03-01T04:24:17.601Z,-1.68
2023-03-01T04:25:17.630Z,-1.56
2023-03-01T04:26:17.606Z,-1.68
2023-03-01T04:27:17.625Z,-1.68
2023-03-01T04:28:17.620Z,-1.65
2023-03-01T04:29:17.581Z,-1.65
2023-03-01T04:30:17.602Z,-1.69
2023-03-01T04:31:17.707Z,-1.59
2023-03-01T04:32:17.738Z,-1.61
2023-03-01T04:33:17.565Z,-1.53
2023-03-01T04:34:17.538Z,-1.58
2023-03-01T04:35:17.562Z,-1.53
2023-03-01T04:36:17.672Z,-1.47
2023-03-01T04:37:17.529Z,-1.40
2023-03-01T04:38:17.528Z,-1.33
2023-03-01T04:39:17.502Z,-1.43
2023-03-01T04:40:17.533Z,-1.27
2023-03-01T04:41:17.498Z,-1.12
2023-03-01T04:42:17.503Z,-0.89
2023-03-01T04:43:17.653Z,-0.77
2023-03-01T04:44:17.564Z,-0.80
2023-03-01T04:45:17.637Z,-0.96
2023-03-01T04:46:17.540Z,-0.91
2023-03-01T04:47:17.478Z,-0.83
2023-03-01T04:48:17.459Z,-0.83
2023-03-01T04:49:17.459Z,-0.75
2023-03-01T04:50:17.452Z,-0.71
2023-03-01T04:51:17.460Z,-0.72
2023-03-01T04:52:17.444Z,-0.75
2023-03-01T04:53:17.644Z,-0.86
2023-03-01T04:54:17.431Z,-0.94
2023-03-01T04:55:17.433Z,-0.85
2023-03-01T04:56:17.419Z,-1.01
2023-03-01T04:57:17.415Z,-1.12
2023-03-01T04:58:18.216Z,-0.85
2023-03-01T04:59:17.377Z,-0.74
2023-03-01T05:00:17.427Z,-0.80
2023-03-01T05:01:18.100Z,-0.94
2023-03-01T05:02:17.386Z,-1.08
2023-03-01T05:03:17.371Z,-1.19
2023-03-01T05:04:17.410Z,-1.22
2023-03-01T05:05:17.372Z,-1.23
2023-03-01T05:06:17.366Z,-1.41
2023-03-01T05:07:17.344Z,-1.47
2023-03-01T05:08:17.329Z,-1.33
2023-03-01T05:09:17.320Z,-1.38
2023-03-01T05:10:17.295Z,-1.33
2023-03-01T05:11:17.318Z,-1.38
2023-03-01T05:12:17.319Z,-1.40
2023-03-01T05:13:17.285Z,-1.44
2023-03-01T05:14:17.289Z,-1.59
2023-03-01T05:15:17.306Z,-1.53
2023-03-01T05:16:17.350Z,-1.51
2023-03-01T05:17:17.257Z,-1.54
2023-03-01T05:18:17.283Z,-1.59
2023-03-01T05:19:17.262Z,-1.51
2023-03-01T05:20:17.249Z,-1.62
2023-03-01T05:21:17.538Z,-1.61
2023-03-01T05:22:17.235Z,-1.58
2023-03-01T05:23:17.253Z,-1.61
2023-03-01T05:24:17.254Z,-1.61
2023-03-01T05:25:17.245Z,-1.65
2023-03-01T05:26:27.887Z,-1.69
2023-03-01T05:27:19.277Z,-1.69
2023-03-01T05:28:17.305Z,-1.74
2023-03-01T05:29:17.234Z,-1.76
2023-03-01T05:30:17.211Z,-1.76
2023-03-01T05:31:17.268Z,-1.77
2023-03-01T05:32:17.315Z,-1.89
2023-03-01T05:33:17.196Z,-1.80
2023-03-01T05:34:17.169Z,-1.86
2023-03-01T05:35:17.211Z,-1.95
2023-03-01T05:36:17.181Z,-1.90
2023-03-01T05:37:17.188Z,-1.98
2023-03-01T05:38:17.230Z,-1.86
2023-03-01T05:39:17.168Z,-1.90
2023-03-01T05:40:17.172Z,-1.97
2023-03-01T05:41:17.187Z,-1.89
2023-03-01T05:42:17.189Z,-1.97
2023-03-01T05:43:17.145Z,-1.89
2023-03-01T05:44:17.120Z,-1.95
2023-03-01T05:45:17.141Z,-1.92
2023-03-01T05:46:17.197Z,-1.89
2023-03-01T05:47:17.125Z,-1.95
2023-03-01T05:48:17.120Z,-1.90
2023-03-01T05:49:17.060Z,-1.86
2023-03-01T05:50:18.089Z,-1.94
2023-03-01T05:51:17.097Z,-1.90
2023-03-01T05:52:17.078Z,-1.92
2023-03-01T05:53:17.069Z,-1.95
2023-03-01T05:54:17.100Z,-1.87
2023-03-01T05:55:17.086Z,-1.89
2023-03-01T05:56:17.080Z,-1.97
2023-03-01T05:57:17.076Z,-1.94
2023-03-01T05:58:17.061Z,-1.83
2023-03-01T05:59:17.030Z,-1.74
2023-03-01T06:00:17.051Z,-1.79
2023-03-01T06:01:17.036Z,-1.89
2023-03-01T06:02:17.028Z,-1.89
2023-03-01T06:03:16.999Z,-1.86
2023-03-01T06:04:17.011Z,-1.77
2023-03-01T06:05:17.050Z,-1.76
2023-03-01T06:06:17.048Z,-1.86
2023-03-01T06:07:17.056Z,-1.83
2023-03-01T06:08:16.976Z,-1.98
2023-03-01T06:09:16.979Z,-1.87
2023-03-01T06:10:16.959Z,-1.87
2023-03-01T06:11:17.013Z,-1.83
2023-03-01T06:12:16.979Z,-1.77
2023-03-01T06:13:16.956Z,-1.84
2023-03-01T06:14:16.914Z,-1.87
2023-03-01T06:15:19.226Z,-1.97
2023-03-01T06:16:17.015Z,-2.02
2023-03-01T06:17:16.923Z,-1.95
2023-03-01T06:18:16.941Z,-2.04
2023-03-01T06:19:16.915Z,-2.13
2023-03-01T06:20:17.785Z,-2.08
2023-03-01T06:21:16.919Z,-2.16
2023-03-01T06:22:16.905Z,-2.04
2023-03-01T06:23:16.910Z,-2.07
2023-03-01T06:24:17.043Z,-2.04
2023-03-01T06:25:16.904Z,-2.12
2023-03-01T06:26:16.878Z,-2.10
2023-03-01T06:27:16.856Z,-2.12
2023-03-01T06:28:16.845Z,-2.10
2023-03-01T06:29:16.846Z,-2.04
2023-03-01T06:30:16.862Z,-2.10
2023-03-01T06:31:16.905Z,-2.18
2023-03-01T06:32:16.918Z,-2.23
2023-03-01T06:33:16.842Z,-2.12
2023-03-01T06:34:16.885Z,-2.16
2023-03-01T06:35:16.812Z,-2.23
2023-03-01T06:36:16.823Z,-2.19
2023-03-01T06:37:16.775Z,-2.18
2023-03-01T06:38:16.898Z,-2.07
2023-03-01T06:39:16.777Z,-2.07
2023-03-01T06:40:17.082Z,-2.10
2023-03-01T06:41:16.781Z,-2.12
2023-03-01T06:42:16.756Z,-2.10
2023-03-01T06:43:17.736Z,-2.02
2023-03-01T06:44:16.775Z,-2.10
2023-03-01T06:45:16.745Z,-2.07
2023-03-01T06:46:16.845Z,-2.02
2023-03-01T06:47:16.754Z,-2.01
2023-03-01T06:48:16.769Z,-2.02
2023-03-01T06:49:16.713Z,-1.87
2023-03-01T06:50:16.767Z,-1.94
2023-03-01T06:51:16.713Z,-1.92
2023-03-01T06:52:17.714Z,-2.01
2023-03-01T06:53:16.703Z,-1.94
2023-03-01T06:54:16.704Z,-1.97
2023-03-01T06:55:16.676Z,-1.82
2023-03-01T06:56:17.718Z,-1.84
2023-03-01T06:57:16.743Z,-1.74
2023-03-01T06:58:16.643Z,-1.86
2023-03-01T06:59:16.663Z,-1.92
2023-03-01T07:00:16.637Z,-1.90
2023-03-01T07:01:16.762Z,-1.84
2023-03-01T07:02:16.623Z,-1.79
2023-03-01T07:03:16.657Z,-1.80
2023-03-01T07:04:16.607Z,-1.83
2023-03-01T07:05:16.692Z,-1.84
2023-03-01T07:06:16.616Z,-1.79
2023-03-01T07:07:16.604Z,-1.80
2023-03-01T07:08:16.600Z,-1.84
2023-03-01T07:09:16.626Z,-1.77
2023-03-01T07:10:16.614Z,-1.77
2023-03-01T07:11:16.586Z,-1.77
2023-03-01T07:12:16.572Z,-1.65
2023-03-01T07:13:16.533Z,-1.64
2023-03-01T07:14:16.538Z,-1.54
2023-03-01T07:15:16.548Z,-1.61
2023-03-01T07:16:16.581Z,-1.64
2023-03-01T07:17:16.544Z,-1.65
2023-03-01T07:18:16.502Z,-1.62
2023-03-01T07:19:16.505Z,-1.54
2023-03-01T07:20:16.505Z,-1.64
2023-03-01T07:21:16.502Z,-1.56
2023-03-01T07:22:16.529Z,-1.61
2023-03-01T07:23:16.492Z,-1.59
2023-03-01T07:24:16.495Z,-1.51
2023-03-01T07:25:16.554Z,-1.54
2023-03-01T07:26:16.476Z,-1.47
2023-03-01T07:27:16.459Z,-1.53
2023-03-01T07:28:21.488Z,-1.56
2023-03-01T07:29:16.457Z,-1.43
2023-03-01T07:30:16.465Z,-1.40
2023-03-01T07:31:16.454Z,-1.35
2023-03-01T07:32:16.499Z,-1.37
2023-03-01T07:33:16.514Z,-1.37
2023-03-01T07:34:16.416Z,-1.41
2023-03-01T07:35:16.409Z,-1.38
2023-03-01T07:36:16.414Z,-1.29
2023-03-01T07:37:16.378Z,-1.22
2023-03-01T07:38:16.413Z,-1.22
2023-03-01T07:39:18.058Z,-1.19
2023-03-01T07:40:16.373Z,-1.19
2023-03-01T07:41:16.361Z,-1.12
2023-03-01T07:42:16.361Z,-1.02
2023-03-01T07:43:16.356Z,-0.97
2023-03-01T07:44:16.376Z,-1.14
2023-03-01T07:45:16.349Z,-1.15
2023-03-01T07:46:16.375Z,-1.05
2023-03-01T07:47:16.322Z,-1.11
2023-03-01T07:48:16.309Z,-1.04
2023-03-01T07:49:16.333Z,-1.01
2023-03-01T07:50:17.161Z,-1.08
2023-03-01T07:51:16.297Z,-0.90
2023-03-01T07:52:16.272Z,-0.86
2023-03-01T07:53:16.282Z,-0.99
2023-03-01T07:54:17.284Z,-0.97
2023-03-01T07:55:16.276Z,-0.89
2023-03-01T07:56:16.292Z,-0.91
2023-03-01T07:57:16.277Z,-0.80
2023-03-01T07:58:16.326Z,-0.74
2023-03-01T07:59:16.249Z,-0.78
2023-03-01T08:00:16.239Z,-0.74
2023-03-01T08:01:16.290Z,-0.80
2023-03-01T08:02:16.229Z,-0.72
2023-03-01T08:03:17.081Z,-0.67
2023-03-01T08:04:16.198Z,-0.71
2023-03-01T08:05:16.220Z,-0.78
2023-03-01T08:06:16.216Z,-0.74
2023-03-01T08:07:16.199Z,-0.83
2023-03-01T08:08:17.492Z,-0.86
2023-03-01T08:09:16.188Z,-0.78
